sensor_id;sensor_type;location;lat;lon;timestamp;temperature;humidity
58447;DHT22;44240;51.840;7.258;2024-03-02T00:00:50;9.70;65.70
58447;DHT22;44240;51.840;7.258;2024-03-02T00:03:18;9.70;65.80
58447;DHT22;44240;51.840;7.258;2024-03-02T00:05:49;9.70;65.90
58447;DHT22;44240;51.840;7.258;2024-03-02T00:08:23;9.70;66.00
58447;DHT22;44240;51.840;7.258;2024-03-02T00:10:51;9.60;66.00
58447;DHT22;44240;51.840;7.258;2024-03-02T00:13:20;9.60;66.00
58447;DHT22;44240;51.840;7.258;2024-03-02T00:15:54;9.60;66.10
58447;DHT22;44240;51.840;7.258;2024-03-02T00:18:32;9.60;66.10
58447;DHT22;44240;51.840;7.258;2024-03-02T00:20:59;9.50;66.10
58447;DHT22;44240;51.840;7.258;2024-03-02T00:23:29;9.60;66.30
58447;DHT22;44240;51.840;7.258;2024-03-02T00:25:56;9.50;66.20
58447;DHT22;44240;51.840;7.258;2024-03-02T00:28:34;9.50;66.30
58447;DHT22;44240;51.840;7.258;2024-03-02T00:31:09;9.50;66.30
58447;DHT22;44240;51.840;7.258;2024-03-02T00:33:40;9.50;66.50
58447;DHT22;44240;51.840;7.258;2024-03-02T00:36:07;9.50;66.50
58447;DHT22;44240;51.840;7.258;2024-03-02T00:38:49;9.50;66.50
58447;DHT22;44240;51.840;7.258;2024-03-02T00:41:31;9.50;66.60
58447;DHT22;44240;51.840;7.258;2024-03-02T00:46:36;9.50;66.70
58447;DHT22;44240;51.840;7.258;2024-03-02T00:49:05;9.40;66.70
58447;DHT22;44240;51.840;7.258;2024-03-02T00:51:34;9.40;66.70
58447;DHT22;44240;51.840;7.258;2024-03-02T00:54:04;9.40;66.80
58447;DHT22;44240;51.840;7.258;2024-03-02T00:56:32;9.40;68.00
58447;DHT22;44240;51.840;7.258;2024-03-02T00:58:59;9.40;67.00
58447;DHT22;44240;51.840;7.258;2024-03-02T01:01:26;9.40;67.00
58447;DHT22;44240;51.840;7.258;2024-03-02T01:03:53;9.30;67.10
58447;DHT22;44240;51.840;7.258;2024-03-02T01:06:20;9.30;67.20
58447;DHT22;44240;51.840;7.258;2024-03-02T01:08:49;9.30;67.40
58447;DHT22;44240;51.840;7.258;2024-03-02T01:11:19;9.30;67.40
58447;DHT22;44240;51.840;7.258;2024-03-02T01:13:48;9.30;67.40
58447;DHT22;44240;51.840;7.258;2024-03-02T01:16:15;9.30;67.50
58447;DHT22;44240;51.840;7.258;2024-03-02T01:18:42;9.30;67.60
58447;DHT22;44240;51.840;7.258;2024-03-02T01:21:09;9.30;67.70
58447;DHT22;44240;51.840;7.258;2024-03-02T01:23:36;9.30;67.80
58447;DHT22;44240;51.840;7.258;2024-03-02T01:26:03;9.20;67.90
58447;DHT22;44240;51.840;7.258;2024-03-02T01:28:30;9.20;67.80
58447;DHT22;44240;51.840;7.258;2024-03-02T01:30:57;9.20;67.80
58447;DHT22;44240;51.840;7.258;2024-03-02T01:33:24;9.20;67.80
58447;DHT22;44240;51.840;7.258;2024-03-02T01:35:50;9.20;67.90
58447;DHT22;44240;51.840;7.258;2024-03-02T01:38:17;9.20;67.90
58447;DHT22;44240;51.840;7.258;2024-03-02T01:40:44;9.10;68.00
58447;DHT22;44240;51.840;7.258;2024-03-02T01:43:11;9.10;68.10
58447;DHT22;44240;51.840;7.258;2024-03-02T01:45:38;9.10;68.20
58447;DHT22;44240;51.840;7.258;2024-03-02T01:48:06;9.10;68.20
58447;DHT22;44240;51.840;7.258;2024-03-02T01:50:34;9.10;68.20
58447;DHT22;44240;51.840;7.258;2024-03-02T01:53:01;9.10;68.30
58447;DHT22;44240;51.840;7.258;2024-03-02T01:55:30;9.10;68.20
58447;DHT22;44240;51.840;7.258;2024-03-02T01:57:58;9.10;68.40
58447;DHT22;44240;51.840;7.258;2024-03-02T02:00:26;9.10;68.40
58447;DHT22;44240;51.840;7.258;2024-03-02T02:02:54;9.00;68.30
58447;DHT22;44240;51.840;7.258;2024-03-02T02:05:21;9.00;68.30
58447;DHT22;44240;51.840;7.258;2024-03-02T02:07:48;9.00;68.40
58447;DHT22;44240;51.840;7.258;2024-03-02T02:10:15;9.00;68.40
58447;DHT22;44240;51.840;7.258;2024-03-02T02:12:42;9.00;68.50
58447;DHT22;44240;51.840;7.258;2024-03-02T02:15:29;9.00;68.60
58447;DHT22;44240;51.840;7.258;2024-03-02T02:17:57;8.90;68.70
58447;DHT22;44240;51.840;7.258;2024-03-02T02:20:25;9.00;68.70
58447;DHT22;44240;51.840;7.258;2024-03-02T02:22:58;9.00;68.70
58447;DHT22;44240;51.840;7.258;2024-03-02T02:25:26;8.90;68.70
58447;DHT22;44240;51.840;7.258;2024-03-02T02:27:53;8.90;68.70
58447;DHT22;44240;51.840;7.258;2024-03-02T02:30:21;9.00;68.70
58447;DHT22;44240;51.840;7.258;2024-03-02T02:32:49;8.90;68.80
58447;DHT22;44240;51.840;7.258;2024-03-02T02:35:16;9.00;68.80
58447;DHT22;44240;51.840;7.258;2024-03-02T02:37:43;9.00;68.70
58447;DHT22;44240;51.840;7.258;2024-03-02T02:40:11;9.00;68.90
58447;DHT22;44240;51.840;7.258;2024-03-02T02:42:39;8.90;68.70
58447;DHT22;44240;51.840;7.258;2024-03-02T02:45:06;9.00;68.90
58447;DHT22;44240;51.840;7.258;2024-03-02T02:47:33;9.00;69.00
58447;DHT22;44240;51.840;7.258;2024-03-02T02:50:06;9.00;69.00
58447;DHT22;44240;51.840;7.258;2024-03-02T02:52:34;9.00;69.10
58447;DHT22;44240;51.840;7.258;2024-03-02T02:55:04;9.10;68.90
58447;DHT22;44240;51.840;7.258;2024-03-02T02:57:34;9.10;68.80
58447;DHT22;44240;51.840;7.258;2024-03-02T03:00:10;9.10;68.80
58447;DHT22;44240;51.840;7.258;2024-03-02T03:02:38;9.20;68.80
58447;DHT22;44240;51.840;7.258;2024-03-02T03:05:06;9.20;68.70
58447;DHT22;44240;51.840;7.258;2024-03-02T03:07:33;9.20;68.60
58447;DHT22;44240;51.840;7.258;2024-03-02T03:10:01;9.30;68.70
58447;DHT22;44240;51.840;7.258;2024-03-02T03:12:28;9.20;68.70
58447;DHT22;44240;51.840;7.258;2024-03-02T03:14:55;9.20;68.60
58447;DHT22;44240;51.840;7.258;2024-03-02T03:17:22;9.30;68.60
58447;DHT22;44240;51.840;7.258;2024-03-02T03:19:50;9.30;68.70
58447;DHT22;44240;51.840;7.258;2024-03-02T03:22:17;9.30;68.60
58447;DHT22;44240;51.840;7.258;2024-03-02T03:24:43;9.30;68.60
58447;DHT22;44240;51.840;7.258;2024-03-02T03:27:10;9.30;68.50
58447;DHT22;44240;51.840;7.258;2024-03-02T03:29:40;9.30;68.50
58447;DHT22;44240;51.840;7.258;2024-03-02T03:32:07;9.40;68.50
58447;DHT22;44240;51.840;7.258;2024-03-02T03:34:34;9.40;68.40
58447;DHT22;44240;51.840;7.258;2024-03-02T03:37:02;9.40;68.40
58447;DHT22;44240;51.840;7.258;2024-03-02T03:39:29;9.40;68.40
58447;DHT22;44240;51.840;7.258;2024-03-02T03:41:56;9.40;68.30
58447;DHT22;44240;51.840;7.258;2024-03-02T03:44:23;9.40;68.30
58447;DHT22;44240;51.840;7.258;2024-03-02T03:46:50;9.50;68.40
58447;DHT22;44240;51.840;7.258;2024-03-02T03:49:17;9.50;68.30
58447;DHT22;44240;51.840;7.258;2024-03-02T03:51:44;9.50;68.20
58447;DHT22;44240;51.840;7.258;2024-03-02T03:54:11;9.50;68.00
58447;DHT22;44240;51.840;7.258;2024-03-02T03:56:38;9.50;68.00
58447;DHT22;44240;51.840;7.258;2024-03-02T03:59:05;9.50;67.90
58447;DHT22;44240;51.840;7.258;2024-03-02T04:01:33;9.50;67.80
58447;DHT22;44240;51.840;7.258;2024-03-02T04:04:00;9.50;67.80
58447;DHT22;44240;51.840;7.258;2024-03-02T04:06:30;9.50;67.80
58447;DHT22;44240;51.840;7.258;2024-03-02T04:08:57;9.50;67.70
58447;DHT22;44240;51.840;7.258;2024-03-02T04:11:24;9.50;67.70
58447;DHT22;44240;51.840;7.258;2024-03-02T04:13:51;9.50;67.70
58447;DHT22;44240;51.840;7.258;2024-03-02T04:16:17;9.40;67.70
58447;DHT22;44240;51.840;7.258;2024-03-02T04:18:44;9.50;67.80
58447;DHT22;44240;51.840;7.258;2024-03-02T04:21:11;9.40;67.70
58447;DHT22;44240;51.840;7.258;2024-03-02T04:23:38;9.40;67.80
58447;DHT22;44240;51.840;7.258;2024-03-02T04:26:05;9.40;67.80
58447;DHT22;44240;51.840;7.258;2024-03-02T04:28:32;9.40;67.80
58447;DHT22;44240;51.840;7.258;2024-03-02T04:30:59;9.40;67.90
58447;DHT22;44240;51.840;7.258;2024-03-02T04:33:26;9.40;67.90
58447;DHT22;44240;51.840;7.258;2024-03-02T04:35:53;9.40;67.90
58447;DHT22;44240;51.840;7.258;2024-03-02T04:38:20;9.40;67.90
58447;DHT22;44240;51.840;7.258;2024-03-02T04:40:47;9.40;67.80
58447;DHT22;44240;51.840;7.258;2024-03-02T04:43:13;9.30;67.80
58447;DHT22;44240;51.840;7.258;2024-03-02T04:45:43;9.30;67.80
58447;DHT22;44240;51.840;7.258;2024-03-02T04:48:09;9.30;67.80
58447;DHT22;44240;51.840;7.258;2024-03-02T04:50:36;9.30;67.90
58447;DHT22;44240;51.840;7.258;2024-03-02T04:53:03;9.30;67.90
58447;DHT22;44240;51.840;7.258;2024-03-02T04:55:30;9.30;67.90
58447;DHT22;44240;51.840;7.258;2024-03-02T04:58:06;9.30;67.90
58447;DHT22;44240;51.840;7.258;2024-03-02T05:00:36;9.20;67.90
58447;DHT22;44240;51.840;7.258;2024-03-02T05:03:03;9.20;67.90
58447;DHT22;44240;51.840;7.258;2024-03-02T05:05:30;9.20;67.90
58447;DHT22;44240;51.840;7.258;2024-03-02T05:07:56;9.20;67.90
58447;DHT22;44240;51.840;7.258;2024-03-02T05:10:23;9.20;67.90
58447;DHT22;44240;51.840;7.258;2024-03-02T05:12:51;9.10;67.90
58447;DHT22;44240;51.840;7.258;2024-03-02T05:15:24;9.10;68.00
58447;DHT22;44240;51.840;7.258;2024-03-02T05:17:51;9.10;68.10
58447;DHT22;44240;51.840;7.258;2024-03-02T05:20:18;9.10;68.20
58447;DHT22;44240;51.840;7.258;2024-03-02T05:22:45;9.00;68.10
58447;DHT22;44240;51.840;7.258;2024-03-02T05:25:13;9.00;68.20
58447;DHT22;44240;51.840;7.258;2024-03-02T05:27:40;9.00;68.30
58447;DHT22;44240;51.840;7.258;2024-03-02T05:30:08;9.00;68.30
58447;DHT22;44240;51.840;7.258;2024-03-02T05:32:35;9.00;68.40
58447;DHT22;44240;51.840;7.258;2024-03-02T05:35:02;8.90;68.30
58447;DHT22;44240;51.840;7.258;2024-03-02T05:37:29;9.00;68.40
58447;DHT22;44240;51.840;7.258;2024-03-02T05:39:56;8.90;68.30
58447;DHT22;44240;51.840;7.258;2024-03-02T05:42:23;8.90;68.30
58447;DHT22;44240;51.840;7.258;2024-03-02T05:44:50;8.90;68.30
58447;DHT22;44240;51.840;7.258;2024-03-02T05:47:17;8.90;68.30
58447;DHT22;44240;51.840;7.258;2024-03-02T05:49:44;8.90;68.30
58447;DHT22;44240;51.840;7.258;2024-03-02T05:52:11;8.90;68.30
58447;DHT22;44240;51.840;7.258;2024-03-02T05:54:39;8.80;68.30
58447;DHT22;44240;51.840;7.258;2024-03-02T05:57:06;8.80;68.30
58447;DHT22;44240;51.840;7.258;2024-03-02T05:59:51;8.80;68.40
58447;DHT22;44240;51.840;7.258;2024-03-02T06:02:18;8.70;69.40
58447;DHT22;44240;51.840;7.258;2024-03-02T06:04:45;8.70;68.40
58447;DHT22;44240;51.840;7.258;2024-03-02T06:07:12;8.70;68.50
58447;DHT22;44240;51.840;7.258;2024-03-02T06:09:39;8.60;68.50
58447;DHT22;44240;51.840;7.258;2024-03-02T06:12:06;8.60;68.50
58447;DHT22;44240;51.840;7.258;2024-03-02T06:14:32;8.50;68.60
58447;DHT22;44240;51.840;7.258;2024-03-02T06:16:59;8.50;68.70
58447;DHT22;44240;51.840;7.258;2024-03-02T06:19:26;8.50;68.80
58447;DHT22;44240;51.840;7.258;2024-03-02T06:21:54;8.40;68.90
58447;DHT22;44240;51.840;7.258;2024-03-02T06:24:21;8.40;69.00
58447;DHT22;44240;51.840;7.258;2024-03-02T06:26:48;8.40;69.20
58447;DHT22;44240;51.840;7.258;2024-03-02T06:29:15;8.30;69.30
58447;DHT22;44240;51.840;7.258;2024-03-02T06:31:41;8.30;69.30
58447;DHT22;44240;51.840;7.258;2024-03-02T06:34:08;8.30;69.40
58447;DHT22;44240;51.840;7.258;2024-03-02T06:36:35;8.30;69.40
58447;DHT22;44240;51.840;7.258;2024-03-02T06:39:02;8.30;69.40
58447;DHT22;44240;51.840;7.258;2024-03-02T06:41:29;8.30;69.50
58447;DHT22;44240;51.840;7.258;2024-03-02T06:43:56;8.20;69.50
58447;DHT22;44240;51.840;7.258;2024-03-02T06:46:27;8.20;69.60
58447;DHT22;44240;51.840;7.258;2024-03-02T06:48:53;8.20;69.80
58447;DHT22;44240;51.840;7.258;2024-03-02T06:51:21;8.20;69.80
58447;DHT22;44240;51.840;7.258;2024-03-02T06:53:47;8.20;69.80
58447;DHT22;44240;51.840;7.258;2024-03-02T06:56:14;8.20;69.90
58447;DHT22;44240;51.840;7.258;2024-03-02T06:58:41;8.20;70.10
58447;DHT22;44240;51.840;7.258;2024-03-02T07:01:09;8.20;70.20
58447;DHT22;44240;51.840;7.258;2024-03-02T07:03:36;8.20;70.40
58447;DHT22;44240;51.840;7.258;2024-03-02T07:06:03;8.20;70.60
58447;DHT22;44240;51.840;7.258;2024-03-02T07:08:30;8.20;70.50
58447;DHT22;44240;51.840;7.258;2024-03-02T07:10:57;8.20;70.50
58447;DHT22;44240;51.840;7.258;2024-03-02T07:13:24;8.20;70.50
58447;DHT22;44240;51.840;7.258;2024-03-02T07:15:51;8.30;70.60
58447;DHT22;44240;51.840;7.258;2024-03-02T07:18:30;8.30;70.60
58447;DHT22;44240;51.840;7.258;2024-03-02T07:20:57;8.30;70.70
58447;DHT22;44240;51.840;7.258;2024-03-02T07:23:26;8.30;70.70
58447;DHT22;44240;51.840;7.258;2024-03-02T07:25:54;8.40;70.80
58447;DHT22;44240;51.840;7.258;2024-03-02T07:28:26;8.40;70.90
58447;DHT22;44240;51.840;7.258;2024-03-02T07:31:03;8.40;70.80
58447;DHT22;44240;51.840;7.258;2024-03-02T07:33:31;8.40;70.70
58447;DHT22;44240;51.840;7.258;2024-03-02T07:35:59;8.50;70.70
58447;DHT22;44240;51.840;7.258;2024-03-02T07:38:31;8.50;70.80
58447;DHT22;44240;51.840;7.258;2024-03-02T07:40:59;8.60;70.70
58447;DHT22;44240;51.840;7.258;2024-03-02T07:43:27;8.60;70.70
58447;DHT22;44240;51.840;7.258;2024-03-02T07:45:54;8.70;70.70
58447;DHT22;44240;51.840;7.258;2024-03-02T07:48:21;8.80;70.60
58447;DHT22;44240;51.840;7.258;2024-03-02T07:50:48;8.80;70.50
58447;DHT22;44240;51.840;7.258;2024-03-02T07:53:14;8.90;70.50
58447;DHT22;44240;51.840;7.258;2024-03-02T07:55:42;9.00;70.50
58447;DHT22;44240;51.840;7.258;2024-03-02T07:58:09;9.00;70.30
58447;DHT22;44240;51.840;7.258;2024-03-02T08:00:36;9.10;70.30
58447;DHT22;44240;51.840;7.258;2024-03-02T08:03:03;9.30;70.20
58447;DHT22;44240;51.840;7.258;2024-03-02T08:05:30;9.40;70.00
58447;DHT22;44240;51.840;7.258;2024-03-02T08:07:57;9.50;70.00
58447;DHT22;44240;51.840;7.258;2024-03-02T08:10:24;9.60;70.80
58447;DHT22;44240;51.840;7.258;2024-03-02T08:12:51;9.70;70.30
58447;DHT22;44240;51.840;7.258;2024-03-02T08:15:18;9.90;69.00
58447;DHT22;44240;51.840;7.258;2024-03-02T08:17:45;10.00;68.70
58447;DHT22;44240;51.840;7.258;2024-03-02T08:20:16;10.10;68.60
58447;DHT22;44240;51.840;7.258;2024-03-02T08:22:43;10.30;68.40
58447;DHT22;44240;51.840;7.258;2024-03-02T08:25:10;10.40;68.20
58447;DHT22;44240;51.840;7.258;2024-03-02T08:27:38;10.60;68.00
58447;DHT22;44240;51.840;7.258;2024-03-02T08:30:06;10.70;67.70
58447;DHT22;44240;51.840;7.258;2024-03-02T08:32:34;10.80;67.30
58447;DHT22;44240;51.840;7.258;2024-03-02T08:35:01;10.90;66.80
58447;DHT22;44240;51.840;7.258;2024-03-02T08:37:28;11.00;66.30
58447;DHT22;44240;51.840;7.258;2024-03-02T08:39:55;11.10;66.00
58447;DHT22;44240;51.840;7.258;2024-03-02T08:42:22;11.20;65.80
58447;DHT22;44240;51.840;7.258;2024-03-02T08:44:49;11.20;65.70
58447;DHT22;44240;51.840;7.258;2024-03-02T08:47:16;11.30;65.40
58447;DHT22;44240;51.840;7.258;2024-03-02T08:49:43;11.40;65.10
58447;DHT22;44240;51.840;7.258;2024-03-02T08:52:10;11.40;64.60
58447;DHT22;44240;51.840;7.258;2024-03-02T08:54:37;11.50;63.90
58447;DHT22;44240;51.840;7.258;2024-03-02T08:57:05;11.60;64.10
58447;DHT22;44240;51.840;7.258;2024-03-02T08:59:33;11.60;63.70
58447;DHT22;44240;51.840;7.258;2024-03-02T09:01:59;11.70;63.00
58447;DHT22;44240;51.840;7.258;2024-03-02T09:04:28;11.80;62.60
58447;DHT22;44240;51.840;7.258;2024-03-02T09:06:59;11.80;62.40
58447;DHT22;44240;51.840;7.258;2024-03-02T09:09:26;11.90;62.30
58447;DHT22;44240;51.840;7.258;2024-03-02T09:11:53;11.90;61.50
58447;DHT22;44240;51.840;7.258;2024-03-02T09:14:21;12.00;61.70
58447;DHT22;44240;51.840;7.258;2024-03-02T09:16:48;12.00;61.80
58447;DHT22;44240;51.840;7.258;2024-03-02T09:19:15;12.10;61.70
58447;DHT22;44240;51.840;7.258;2024-03-02T09:21:43;12.20;61.40
58447;DHT22;44240;51.840;7.258;2024-03-02T09:24:10;12.20;61.20
58447;DHT22;44240;51.840;7.258;2024-03-02T09:26:40;12.30;61.30
58447;DHT22;44240;51.840;7.258;2024-03-02T09:29:07;12.40;61.20
58447;DHT22;44240;51.840;7.258;2024-03-02T09:31:39;12.40;61.00
58447;DHT22;44240;51.840;7.258;2024-03-02T09:34:07;12.40;60.50
58447;DHT22;44240;51.840;7.258;2024-03-02T09:36:34;12.50;60.50
58447;DHT22;44240;51.840;7.258;2024-03-02T09:39:00;12.50;60.20
58447;DHT22;44240;51.840;7.258;2024-03-02T09:41:27;12.60;59.50
58447;DHT22;44240;51.840;7.258;2024-03-02T09:43:55;12.70;59.70
58447;DHT22;44240;51.840;7.258;2024-03-02T09:46:22;12.70;59.40
58447;DHT22;44240;51.840;7.258;2024-03-02T09:48:49;12.80;58.90
58447;DHT22;44240;51.840;7.258;2024-03-02T09:51:16;12.80;58.90
58447;DHT22;44240;51.840;7.258;2024-03-02T09:53:47;12.90;58.60
58447;DHT22;44240;51.840;7.258;2024-03-02T09:56:14;12.90;58.20
58447;DHT22;44240;51.840;7.258;2024-03-02T09:58:42;12.90;58.10
58447;DHT22;44240;51.840;7.258;2024-03-02T10:01:10;13.00;58.30
58447;DHT22;44240;51.840;7.258;2024-03-02T10:03:37;13.00;58.20
58447;DHT22;44240;51.840;7.258;2024-03-02T10:06:22;13.10;57.80
58447;DHT22;44240;51.840;7.258;2024-03-02T10:08:49;13.10;58.10
58447;DHT22;44240;51.840;7.258;2024-03-02T10:11:30;13.20;57.70
58447;DHT22;44240;51.840;7.258;2024-03-02T10:14:10;13.20;56.70
58447;DHT22;44240;51.840;7.258;2024-03-02T10:16:39;13.30;56.90
58447;DHT22;44240;51.840;7.258;2024-03-02T10:19:16;13.40;57.40
58447;DHT22;44240;51.840;7.258;2024-03-02T10:21:55;13.50;57.50
58447;DHT22;44240;51.840;7.258;2024-03-02T10:24:26;13.70;56.10
58447;DHT22;44240;51.840;7.258;2024-03-02T10:26:53;13.80;56.00
58447;DHT22;44240;51.840;7.258;2024-03-02T10:29:21;13.90;56.00
58447;DHT22;44240;51.840;7.258;2024-03-02T10:31:47;14.10;54.70
58447;DHT22;44240;51.840;7.258;2024-03-02T10:34:14;14.20;54.80
58447;DHT22;44240;51.840;7.258;2024-03-02T10:36:44;14.20;54.80
58447;DHT22;44240;51.840;7.258;2024-03-02T10:39:14;14.30;54.50
58447;DHT22;44240;51.840;7.258;2024-03-02T10:41:41;14.50;54.70
58447;DHT22;44240;51.840;7.258;2024-03-02T10:44:09;14.60;54.50
58447;DHT22;44240;51.840;7.258;2024-03-02T10:46:37;14.70;54.40
58447;DHT22;44240;51.840;7.258;2024-03-02T10:49:06;14.80;54.40
58447;DHT22;44240;51.840;7.258;2024-03-02T10:51:35;14.80;54.60
58447;DHT22;44240;51.840;7.258;2024-03-02T10:54:04;14.80;54.00
58447;DHT22;44240;51.840;7.258;2024-03-02T10:59:34;14.70;53.30
58447;DHT22;44240;51.840;7.258;2024-03-02T11:02:03;14.70;52.40
58447;DHT22;44240;51.840;7.258;2024-03-02T11:04:32;14.70;52.80
58447;DHT22;44240;51.840;7.258;2024-03-02T11:07:02;14.80;53.30
58447;DHT22;44240;51.840;7.258;2024-03-02T11:09:33;14.80;53.20
58447;DHT22;44240;51.840;7.258;2024-03-02T11:12:03;14.80;52.70
58447;DHT22;44240;51.840;7.258;2024-03-02T11:14:32;14.90;52.20
58447;DHT22;44240;51.840;7.258;2024-03-02T11:17:03;14.90;52.50
58447;DHT22;44240;51.840;7.258;2024-03-02T11:19:31;15.00;52.40
58447;DHT22;44240;51.840;7.258;2024-03-02T11:21:59;15.00;51.60
58447;DHT22;44240;51.840;7.258;2024-03-02T11:26:54;15.00;51.10
58447;DHT22;44240;51.840;7.258;2024-03-02T11:32:03;15.00;51.70
58447;DHT22;44240;51.840;7.258;2024-03-02T11:34:31;15.10;51.80
58447;DHT22;44240;51.840;7.258;2024-03-02T11:36:58;15.10;51.30
58447;DHT22;44240;51.840;7.258;2024-03-02T11:39:26;15.20;50.60
58447;DHT22;44240;51.840;7.258;2024-03-02T11:41:54;15.20;50.30
58447;DHT22;44240;51.840;7.258;2024-03-02T11:44:25;15.20;49.70
58447;DHT22;44240;51.840;7.258;2024-03-02T11:46:59;15.10;49.50
58447;DHT22;44240;51.840;7.258;2024-03-02T11:52:05;15.10;49.60
58447;DHT22;44240;51.840;7.258;2024-03-02T11:54:34;15.10;49.90
58447;DHT22;44240;51.840;7.258;2024-03-02T11:57:02;15.10;49.90
58447;DHT22;44240;51.840;7.258;2024-03-02T11:59:29;15.10;49.80
58447;DHT22;44240;51.840;7.258;2024-03-02T12:01:58;15.10;50.30
58447;DHT22;44240;51.840;7.258;2024-03-02T12:04:26;15.10;50.70
58447;DHT22;44240;51.840;7.258;2024-03-02T12:07:00;15.10;51.10
58447;DHT22;44240;51.840;7.258;2024-03-02T12:09:28;15.20;51.00
58447;DHT22;44240;51.840;7.258;2024-03-02T12:12:02;15.20;51.00
58447;DHT22;44240;51.840;7.258;2024-03-02T12:14:31;15.30;51.20
58447;DHT22;44240;51.840;7.258;2024-03-02T12:16:58;15.30;51.10
58447;DHT22;44240;51.840;7.258;2024-03-02T12:19:26;15.40;51.20
58447;DHT22;44240;51.840;7.258;2024-03-02T12:21:53;15.40;51.40
58447;DHT22;44240;51.840;7.258;2024-03-02T12:24:21;15.40;51.00
58447;DHT22;44240;51.840;7.258;2024-03-02T12:26:51;15.50;50.60
58447;DHT22;44240;51.840;7.258;2024-03-02T12:29:20;15.50;50.10
58447;DHT22;44240;51.840;7.258;2024-03-02T12:31:51;15.60;50.10
58447;DHT22;44240;51.840;7.258;2024-03-02T12:34:22;15.60;50.10
58447;DHT22;44240;51.840;7.258;2024-03-02T12:36:50;15.70;50.10
58447;DHT22;44240;51.840;7.258;2024-03-02T12:39:20;15.70;49.80
58447;DHT22;44240;51.840;7.258;2024-03-02T12:41:47;15.80;49.70
58447;DHT22;44240;51.840;7.258;2024-03-02T12:44:14;15.80;49.30
58447;DHT22;44240;51.840;7.258;2024-03-02T12:46:41;15.90;49.10
58447;DHT22;44240;51.840;7.258;2024-03-02T12:49:12;16.00;49.00
58447;DHT22;44240;51.840;7.258;2024-03-02T12:51:40;16.10;48.90
58447;DHT22;44240;51.840;7.258;2024-03-02T12:54:08;16.10;47.80
58447;DHT22;44240;51.840;7.258;2024-03-02T12:56:36;16.20;48.00
58447;DHT22;44240;51.840;7.258;2024-03-02T12:59:05;16.20;48.30
58447;DHT22;44240;51.840;7.258;2024-03-02T13:01:32;16.30;48.20
58447;DHT22;44240;51.840;7.258;2024-03-02T13:03:59;16.30;48.20
58447;DHT22;44240;51.840;7.258;2024-03-02T13:06:26;16.40;48.30
58447;DHT22;44240;51.840;7.258;2024-03-02T13:08:55;16.40;48.20
58447;DHT22;44240;51.840;7.258;2024-03-02T13:11:25;16.50;47.90
58447;DHT22;44240;51.840;7.258;2024-03-02T13:13:52;16.60;47.90
58447;DHT22;44240;51.840;7.258;2024-03-02T13:16:19;16.60;48.20
58447;DHT22;44240;51.840;7.258;2024-03-02T13:18:56;16.70;48.00
58447;DHT22;44240;51.840;7.258;2024-03-02T13:21:23;16.70;47.70
58447;DHT22;44240;51.840;7.258;2024-03-02T13:23:50;16.70;48.70
58447;DHT22;44240;51.840;7.258;2024-03-02T13:26:16;16.70;47.90
58447;DHT22;44240;51.840;7.258;2024-03-02T13:28:43;16.80;48.00
58447;DHT22;44240;51.840;7.258;2024-03-02T13:31:10;16.90;47.70
58447;DHT22;44240;51.840;7.258;2024-03-02T13:33:37;16.90;47.30
58447;DHT22;44240;51.840;7.258;2024-03-02T13:36:04;16.90;47.30
58447;DHT22;44240;51.840;7.258;2024-03-02T13:38:31;17.00;47.50
58447;DHT22;44240;51.840;7.258;2024-03-02T13:40:58;17.00;47.30
58447;DHT22;44240;51.840;7.258;2024-03-02T13:43:27;17.10;47.00
58447;DHT22;44240;51.840;7.258;2024-03-02T13:45:53;17.10;47.20
58447;DHT22;44240;51.840;7.258;2024-03-02T13:48:20;17.20;47.40
58447;DHT22;44240;51.840;7.258;2024-03-02T13:50:47;17.30;47.50
58447;DHT22;44240;51.840;7.258;2024-03-02T13:53:14;17.50;47.40
58447;DHT22;44240;51.840;7.258;2024-03-02T13:55:41;17.50;47.30
58447;DHT22;44240;51.840;7.258;2024-03-02T13:58:09;17.50;47.10
58447;DHT22;44240;51.840;7.258;2024-03-02T14:00:37;17.40;47.20
58447;DHT22;44240;51.840;7.258;2024-03-02T14:03:08;17.50;47.40
58447;DHT22;44240;51.840;7.258;2024-03-02T14:05:35;17.40;47.70
58447;DHT22;44240;51.840;7.258;2024-03-02T14:08:02;17.50;47.60
58447;DHT22;44240;51.840;7.258;2024-03-02T14:10:28;17.70;47.30
58447;DHT22;44240;51.840;7.258;2024-03-02T14:12:56;18.00;46.90
58447;DHT22;44240;51.840;7.258;2024-03-02T14:15:23;18.50;46.10
58447;DHT22;44240;51.840;7.258;2024-03-02T14:17:50;19.00;45.20
58447;DHT22;44240;51.840;7.258;2024-03-02T14:20:18;19.50;44.40
58447;DHT22;44240;51.840;7.258;2024-03-02T14:22:49;19.80;43.20
58447;DHT22;44240;51.840;7.258;2024-03-02T14:25:16;20.40;42.00
58447;DHT22;44240;51.840;7.258;2024-03-02T14:27:44;21.00;40.60
58447;DHT22;44240;51.840;7.258;2024-03-02T14:30:15;21.40;40.00
58447;DHT22;44240;51.840;7.258;2024-03-02T14:32:42;21.40;39.40
58447;DHT22;44240;51.840;7.258;2024-03-02T14:35:09;21.40;39.70
58447;DHT22;44240;51.840;7.258;2024-03-02T14:37:39;21.40;39.30
58447;DHT22;44240;51.840;7.258;2024-03-02T14:40:06;21.30;39.40
58447;DHT22;44240;51.840;7.258;2024-03-02T14:42:35;21.20;39.10
58447;DHT22;44240;51.840;7.258;2024-03-02T14:45:03;21.10;39.70
58447;DHT22;44240;51.840;7.258;2024-03-02T14:47:32;21.20;39.60
58447;DHT22;44240;51.840;7.258;2024-03-02T14:50:00;21.20;39.60
58447;DHT22;44240;51.840;7.258;2024-03-02T14:52:28;20.90;39.60
58447;DHT22;44240;51.840;7.258;2024-03-02T14:54:54;20.50;40.50
58447;DHT22;44240;51.840;7.258;2024-03-02T14:57:21;20.10;41.30
58447;DHT22;44240;51.840;7.258;2024-03-02T14:59:48;19.70;42.80
58447;DHT22;44240;51.840;7.258;2024-03-02T15:02:15;19.40;42.50
58447;DHT22;44240;51.840;7.258;2024-03-02T15:04:42;19.10;42.90
58447;DHT22;44240;51.840;7.258;2024-03-02T15:07:11;18.80;43.20
58447;DHT22;44240;51.840;7.258;2024-03-02T15:09:38;18.60;43.60
58447;DHT22;44240;51.840;7.258;2024-03-02T15:12:06;18.40;44.10
58447;DHT22;44240;51.840;7.258;2024-03-02T15:14:36;18.20;44.50
58447;DHT22;44240;51.840;7.258;2024-03-02T15:17:05;18.10;44.80
58447;DHT22;44240;51.840;7.258;2024-03-02T15:19:32;18.00;45.30
58447;DHT22;44240;51.840;7.258;2024-03-02T15:21:59;17.90;45.50
58447;DHT22;44240;51.840;7.258;2024-03-02T15:24:26;17.90;45.70
58447;DHT22;44240;51.840;7.258;2024-03-02T15:26:53;17.80;45.90
58447;DHT22;44240;51.840;7.258;2024-03-02T15:29:21;17.80;46.10
58447;DHT22;44240;51.840;7.258;2024-03-02T15:31:51;17.70;46.30
58447;DHT22;44240;51.840;7.258;2024-03-02T15:34:18;17.70;46.70
58447;DHT22;44240;51.840;7.258;2024-03-02T15:36:45;17.60;46.60
58447;DHT22;44240;51.840;7.258;2024-03-02T15:39:12;17.50;47.10
58447;DHT22;44240;51.840;7.258;2024-03-02T15:41:39;17.40;47.20
58447;DHT22;44240;51.840;7.258;2024-03-02T15:44:07;17.30;47.20
58447;DHT22;44240;51.840;7.258;2024-03-02T15:46:34;17.20;47.40
58447;DHT22;44240;51.840;7.258;2024-03-02T15:49:01;17.00;47.50
58447;DHT22;44240;51.840;7.258;2024-03-02T15:51:29;17.00;47.70
58447;DHT22;44240;51.840;7.258;2024-03-02T15:53:56;16.90;48.00
58447;DHT22;44240;51.840;7.258;2024-03-02T15:56:22;16.80;48.20
58447;DHT22;44240;51.840;7.258;2024-03-02T15:58:49;16.70;48.30